Time;durP1;ratioP1;P1;durP2;ratioP2;P2;SDS_P1;SDS_P2;PMS_P1;PMS_P2;Temp;Humidity;BMP_temperature;BMP_pressure;BME280_temperature;BME280_humidity;BME280_pressure;Samples;Min_cycle;Max_cycle;Signal;HPM_P1;HPM_P2
2022/11/16 00:02:10;;;;;;;142.30;71.82;;;;;;;5.70;100.00;99718.69;5031723;28;20041;-74
2022/11/16 00:04:35;;;;;;;141.95;73.43;;;;;;;5.74;100.00;99722.19;5032951;28;20080;-75
2022/11/16 00:07:02;;;;;;;147.45;75.60;;;;;;;5.78;100.00;99713.50;5031473;28;20030;-75
2022/11/16 00:09:31;;;;;;;144.63;76.10;;;;;;;5.80;100.00;99713.81;5031228;28;20072;-75
2022/11/16 00:11:59;;;;;;;149.82;76.60;;;;;;;5.84;100.00;99714.47;5033734;28;20026;-75
2022/11/16 00:14:26;;;;;;;157.15;77.70;;;;;;;5.88;100.00;99714.28;5034758;28;20029;-75
2022/11/16 00:16:52;;;;;;;156.77;78.07;;;;;;;5.87;100.00;99707.03;5033327;28;20052;-75
2022/11/16 00:19:17;;;;;;;147.68;75.53;;;;;;;5.94;100.00;99709.56;5034527;28;20059;-75
2022/11/16 00:21:43;;;;;;;139.40;71.50;;;;;;;5.96;100.00;99707.00;5016689;28;20025;-75
2022/11/16 00:24:13;;;;;;;144.05;73.10;;;;;;;5.98;100.00;99704.50;5034300;28;20371;-75
2022/11/16 00:26:38;;;;;;;130.00;71.70;;;;;;;5.99;100.00;99700.41;5016646;28;20119;-75
2022/11/16 00:29:03;;;;;;;139.25;70.80;;;;;;;6.03;100.00;99698.19;5033180;28;20063;-75
2022/11/16 00:31:29;;;;;;;137.90;72.43;;;;;;;6.03;100.00;99690.47;5033663;28;20032;-76
2022/11/16 00:33:54;;;;;;;136.52;70.72;;;;;;;6.06;100.00;99683.84;5033096;28;20036;-75
2022/11/16 00:36:21;;;;;;;131.13;70.32;;;;;;;6.09;100.00;99682.09;5033975;28;20021;-76
2022/11/16 00:38:46;;;;;;;145.50;72.43;;;;;;;6.10;100.00;99689.31;5031722;28;20017;-76
2022/11/16 00:41:12;;;;;;;130.45;70.82;;;;;;;6.10;100.00;99680.81;5032256;28;20037;-77
2022/11/16 00:43:37;;;;;;;137.10;69.50;;;;;;;6.10;100.00;99673.09;5030721;28;20048;-76
2022/11/16 00:46:03;;;;;;;133.52;70.22;;;;;;;6.10;100.00;99677.97;5031862;28;20516;-76
2022/11/16 00:48:29;;;;;;;130.75;71.68;;;;;;;6.10;100.00;99677.97;5030565;28;20033;-76
2022/11/16 00:50:54;;;;;;;133.80;69.53;;;;;;;6.14;100.00;99681.47;5031821;28;20025;-76
2022/11/16 00:53:20;;;;;;;133.52;71.90;;;;;;;6.15;100.00;99680.16;5030514;28;20036;-76
2022/11/16 00:55:46;;;;;;;142.65;72.95;;;;;;;6.13;100.00;99677.03;5032902;28;20025;-76
2022/11/16 00:58:12;;;;;;;140.43;71.05;;;;;;;6.11;100.00;99673.88;5032352;28;20025;-76
2022/11/16 01:00:38;;;;;;;134.00;69.13;;;;;;;6.15;100.00;99668.81;5030453;28;20025;-76
2022/11/16 01:03:03;;;;;;;129.30;69.43;;;;;;;6.17;100.00;99677.66;5030412;28;20120;-76
2022/11/16 01:05:29;;;;;;;134.93;68.40;;;;;;;6.17;100.00;99666.31;5030650;28;20075;-76
2022/11/16 01:07:54;;;;;;;123.10;64.78;;;;;;;6.15;100.00;99668.81;5030967;28;20048;-76
2022/11/16 01:10:22;;;;;;;127.72;67.88;;;;;;;6.15;100.00;99675.28;5030957;28;20017;-76
2022/11/16 01:12:48;;;;;;;130.02;64.75;;;;;;;6.15;100.00;99672.44;5031717;28;20056;-75
2022/11/16 01:15:15;;;;;;;129.38;65.10;;;;;;;6.17;100.00;99671.97;5032476;28;20443;-75
2022/11/16 01:17:41;;;;;;;125.20;67.93;;;;;;;6.17;100.00;99667.09;5015719;28;20167;-75
2022/11/16 01:20:11;;;;;;;132.10;68.65;;;;;;;6.19;100.00;99663.75;5015627;28;20059;-77
2022/11/16 01:22:38;;;;;;;117.15;62.83;;;;;;;6.21;100.00;99661.25;5032130;28;20032;-77
2022/11/16 01:25:04;;;;;;;123.40;66.30;;;;;;;6.20;100.00;99643.44;5032153;28;20030;-76
2022/11/16 01:27:30;;;;;;;123.70;63.15;;;;;;;6.25;100.00;99650.50;5033856;28;20025;-76
2022/11/16 01:29:55;;;;;;;124.22;63.80;;;;;;;6.27;100.00;99642.31;5033537;28;20030;-76
2022/11/16 01:32:21;;;;;;;125.82;64.47;;;;;;;6.25;100.00;99644.84;5033418;28;20018;-75
2022/11/16 01:34:46;;;;;;;122.43;64.35;;;;;;;6.24;100.00;99646.09;5033355;28;20031;-75
2022/11/16 01:37:12;;;;;;;130.50;64.97;;;;;;;6.23;100.00;99641.72;5032021;28;20544;-76
2022/11/16 01:39:37;;;;;;;127.72;68.75;;;;;;;6.18;100.00;99642.34;5032058;28;20029;-75
2022/11/16 01:42:03;;;;;;;129.63;68.55;;;;;;;6.23;100.00;99653.84;5032862;28;20041;-74
2022/11/16 01:44:32;;;;;;;134.05;67.70;;;;;;;6.22;100.00;99655.09;5031929;28;20037;-74
2022/11/16 01:47:02;;;;;;;130.35;62.95;;;;;;;6.24;100.00;99661.06;5033152;28;20093;-75
2022/11/16 01:49:30;;;;;;;130.75;64.35;;;;;;;6.24;100.00;99651.75;5015337;28;20029;-74
2022/11/16 01:52:02;;;;;;;119.05;64.05;;;;;;;6.25;100.00;99647.66;5015356;28;20036;-76
2022/11/16 01:54:28;;;;;;;129.27;62.97;;;;;;;6.18;100.00;99633.84;5033425;28;20030;-75
2022/11/16 01:56:55;;;;;;;122.97;64.25;;;;;;;6.25;100.00;99637.09;5015238;28;20374;-74
2022/11/16 01:59:20;;;;;;;120.88;63.65;;;;;;;6.30;100.00;99637.75;5015291;28;20041;-75
2022/11/16 02:01:46;;;;;;;117.85;63.28;;;;;;;6.27;100.00;99630.97;5031730;28;20389;-77
2022/11/16 02:04:12;;;;;;;123.28;64.40;;;;;;;6.11;100.00;99617.16;5032902;28;20021;-76
2022/11/16 02:07:25;;;;;;;121.60;64.32;;;;;;;6.23;100.00;99625.47;5032150;28;20021;-76
2022/11/16 02:10:03;;;;;;;121.57;65.28;;;;;;;6.25;100.00;99631.44;5030979;28;20033;-76
2022/11/16 02:13:05;;;;;;;120.65;63.38;;;;;;;6.25;100.00;99624.97;5032783;28;20046;-76
2022/11/16 02:15:44;;;;;;;115.53;61.42;;;;;;;6.24;100.00;99614.88;5032968;28;20136;-76
2022/11/16 02:18:24;;;;;;;119.85;62.38;;;;;;;6.23;100.00;99616.19;5031864;28;20033;-76
2022/11/16 02:20:49;;;;;;;119.03;61.70;;;;;;;6.25;100.00;99619.31;5032749;28;20061;-76
2022/11/16 02:23:52;;;;;;;124.32;64.28;;;;;;;6.24;100.00;99620.56;5031555;28;20472;-75
2022/11/16 02:26:45;;;;;;;109.65;59.20;;;;;;;6.24;100.00;99621.34;5031398;28;20052;-75
2022/11/16 02:29:23;;;;;;;115.50;58.33;;;;;;;6.28;100.00;99620.41;5032545;28;20112;-75
2022/11/16 02:31:58;;;;;;;105.38;56.85;;;;;;;6.27;100.00;99613.94;5031676;28;20031;-75
2022/11/16 02:34:26;;;;;;;112.28;59.92;;;;;;;6.28;100.00;99606.22;5032543;28;20029;-75
2022/11/16 02:36:53;;;;;;;105.13;57.13;;;;;;;6.26;100.00;99606.69;5031180;28;20081;-75
2022/11/16 02:39:21;;;;;;;108.25;57.50;;;;;;;6.32;100.00;99610.47;5031332;28;20044;-75
2022/11/16 02:41:47;;;;;;;108.97;56.08;;;;;;;6.37;100.00;99609.03;5029144;28;20049;-75
2022/11/16 02:44:34;;;;;;;111.15;57.03;;;;;;;6.39;100.00;99612.94;5029327;28;20025;-76
2022/11/16 02:47:04;;;;;;;106.57;55.08;;;;;;;6.42;100.00;99614.84;5030304;28;20025;-75
2022/11/16 02:49:34;;;;;;;107.68;54.83;;;;;;;6.45;100.00;99605.34;5012570;28;20033;-76
2022/11/16 02:52:00;;;;;;;106.05;54.35;;;;;;;6.43;100.00;99599.41;5030133;28;20034;-75
2022/11/16 02:54:25;;;;;;;104.25;54.65;;;;;;;6.53;100.00;99608.63;5031377;28;20026;-76
2022/11/16 02:56:51;;;;;;;101.00;53.83;;;;;;;6.53;100.00;99605.81;5034450;28;20041;-75
2022/11/16 02:59:16;;;;;;;106.05;55.28;;;;;;;6.38;100.00;99585.06;5032927;28;20041;-76
2022/11/16 03:01:47;;;;;;;97.45;51.83;;;;;;;6.52;100.00;99605.00;5033837;28;20033;-76
2022/11/16 03:04:27;;;;;;;97.07;52.65;;;;;;;6.51;100.00;99599.81;5032712;28;20032;-76
2022/11/16 03:06:56;;;;;;;97.88;49.47;;;;;;;6.56;100.00;99608.44;5015999;28;20021;-76
2022/11/16 03:09:26;;;;;;;91.47;49.25;;;;;;;6.58;100.00;99599.47;5032437;28;20034;-75
2022/11/16 03:12:01;;;;;;;92.68;49.17;;;;;;;6.59;100.00;99601.00;5015922;28;20025;-75
2022/11/16 03:14:51;;;;;;;91.63;47.50;;;;;;;6.53;100.00;99592.41;5033954;28;20033;-74
2022/11/16 03:17:22;;;;;;;96.57;47.97;;;;;;;6.54;100.00;99599.63;5017928;28;20534;-75
2022/11/16 03:20:06;;;;;;;90.72;47.40;;;;;;;6.55;100.00;99601.19;5034428;28;20443;-74
2022/11/16 03:22:39;;;;;;;84.40;45.67;;;;;;;6.51;100.00;99605.47;5034465;28;20033;-74
2022/11/16 03:25:05;;;;;;;102.07;48.78;;;;;;;6.50;100.00;99603.91;5034412;28;20033;-75
2022/11/16 03:27:39;;;;;;;94.32;46.25;;;;;;;6.46;100.00;99604.09;5034172;28;20037;-77
2022/11/16 03:30:12;;;;;;;95.22;45.20;;;;;;;6.42;100.00;99600.66;5034418;28;20026;-75
2022/11/16 03:32:44;;;;;;;92.13;47.17;;;;;;;6.41;100.00;99601.13;5034332;28;20037;-74
2022/11/16 03:35:16;;;;;;;93.90;46.05;;;;;;;6.38;100.00;99602.88;5017926;28;20030;-75
2022/11/16 03:37:43;;;;;;;100.35;48.72;;;;;;;6.32;100.00;99596.28;5017637;28;20037;-78
2022/11/16 03:40:09;;;;;;;114.75;52.42;;;;;;;6.22;100.00;99589.06;5034049;28;20044;-75
2022/11/16 03:42:35;;;;;;;108.57;50.60;;;;;;;6.23;100.00;99599.16;5033799;28;20053;-75
2022/11/16 03:45:02;;;;;;;104.13;49.10;;;;;;;6.15;100.00;99590.19;5033852;28;20363;-76
2022/11/16 03:47:27;;;;;;;96.93;50.05;;;;;;;6.12;100.00;99591.16;5035434;28;20037;-76
2022/11/16 03:49:52;;;;;;;113.65;54.80;;;;;;;6.07;100.00;99585.34;5034133;28;20120;-77
2022/11/16 03:52:18;;;;;;;110.05;50.78;;;;;;;6.01;100.00;99584.44;5033939;28;20067;-76
2022/11/16 03:54:43;;;;;;;108.57;51.75;;;;;;;5.95;100.00;99572.97;5017405;28;20072;-75
2022/11/16 03:57:14;;;;;;;116.35;51.40;;;;;;;5.96;100.00;99587.91;5017421;28;20060;-75
2022/11/16 03:59:41;;;;;;;114.68;49.90;;;;;;;5.81;100.00;99567.97;5035458;28;20087;-75
2022/11/16 04:02:06;;;;;;;105.00;48.35;;;;;;;5.85;100.00;99571.41;5033963;28;20114;-75
2022/11/16 04:28:12;;;;;;;97.10;43.85;;;;;;;5.55;100.00;99558.31;5034752;28;20064;-76
2022/11/16 04:29:09;;;;;;;107.28;45.25;;;;;;;5.55;100.00;99555.50;5033297;28;20058;-76
2022/11/16 04:39:46;;;;;;;90.68;40.58;;;;;;;5.42;100.00;99572.66;5033254;28;20036;-76
2022/11/16 04:42:18;;;;;;;98.10;41.38;;;;;;;5.41;100.00;99576.75;5033973;28;20057;-75
2022/11/16 04:47:27;;;;;;;101.22;42.63;;;;;;;5.37;100.00;99564.81;5034601;28;20254;-75
2022/11/16 04:49:53;;;;;;;86.82;40.95;;;;;;;5.40;100.00;99572.34;5034060;28;20034;-76
2022/11/16 04:52:18;;;;;;;81.65;39.33;;;;;;;5.39;100.00;99570.78;5032822;28;20029;-76
2022/11/16 04:54:43;;;;;;;91.82;40.85;;;;;;;5.40;100.00;99563.84;5033994;28;20026;-76
2022/11/16 04:57:09;;;;;;;83.53;37.85;;;;;;;5.37;100.00;99562.75;5033738;28;20048;-76
2022/11/16 04:59:34;;;;;;;77.88;36.72;;;;;;;5.37;100.00;99559.94;5016214;28;20053;-76
2022/11/16 05:02:08;;;;;;;84.25;35.63;;;;;;;5.37;100.00;99559.94;5032495;28;20389;-76
2022/11/16 05:04:38;;;;;;;78.30;34.85;;;;;;;5.35;100.00;99544.69;5033806;28;20095;-76
2022/11/16 05:07:11;;;;;;;82.88;37.65;;;;;;;5.36;100.00;99549.06;5032394;28;20040;-76
2022/11/16 05:09:42;;;;;;;79.63;34.08;;;;;;;5.31;100.00;99556.16;5016384;28;20120;-76
2022/11/16 05:12:09;;;;;;;74.35;34.20;;;;;;;5.33;100.00;99559.31;5032588;28;20096;-75
2022/11/16 05:14:37;;;;;;;70.80;31.52;;;;;;;5.33;100.00;99553.66;5033649;28;20470;-75
2022/11/16 05:17:03;;;;;;;75.50;32.63;;;;;;;5.33;100.00;99555.69;5032145;28;20462;-75
2022/11/16 05:22:14;;;;;;;76.80;32.45;;;;;;;5.28;100.00;99550.66;5033497;28;20496;-75
2022/11/16 05:24:39;;;;;;;76.55;34.85;;;;;;;5.29;100.00;99543.75;5033312;28;20049;-75
2022/11/16 05:27:12;;;;;;;76.55;34.55;;;;;;;5.20;100.00;99546.59;5033876;28;20458;-76
2022/11/16 05:29:39;;;;;;;77.85;34.30;;;;;;;5.20;100.00;99546.59;5032678;28;20379;-76
2022/11/16 05:32:05;;;;;;;80.30;33.75;;;;;;;5.14;100.00;99546.44;5015849;28;20065;-76
2022/11/16 05:34:31;;;;;;;79.00;33.03;;;;;;;5.13;100.00;99547.69;5032508;28;20050;-76
2022/11/16 05:36:58;;;;;;;75.28;33.65;;;;;;;5.12;100.00;99548.97;5032395;28;20060;-76
2022/11/16 05:39:24;;;;;;;83.32;37.13;;;;;;;5.12;100.00;99548.97;5033681;28;20061;-76
2022/11/16 05:41:51;;;;;;;77.15;33.95;;;;;;;5.11;100.00;99553.03;5032039;28;20084;-76
2022/11/16 05:44:18;;;;;;;78.38;35.05;;;;;;;5.09;100.00;99543.47;5016128;28;20064;-76
2022/11/16 05:46:44;;;;;;;82.40;34.17;;;;;;;5.09;100.00;99547.09;5031982;28;20073;-78
2022/11/16 05:49:10;;;;;;;73.63;33.00;;;;;;;5.09;100.00;99552.75;5033249;28;20029;-78
2022/11/16 05:51:37;;;;;;;69.65;31.35;;;;;;;5.10;100.00;99545.03;5033092;28;20485;-78
2022/11/16 05:54:04;;;;;;;71.85;31.80;;;;;;;5.11;100.00;99541.72;5032032;28;20039;-80
2022/11/16 05:56:31;;;;;;;76.40;33.08;;;;;;;5.11;100.00;99538.88;5032133;28;20063;-79
2022/11/16 05:58:57;;;;;;;66.70;30.45;;;;;;;5.13;100.00;99539.22;5036586;28;20033;-78
2022/11/16 06:01:23;;;;;;;66.07;28.13;;;;;;;5.14;100.00;99537.94;5051576;28;20035;-79
2022/11/16 06:03:49;;;;;;;78.57;29.20;;;;;;;5.15;100.00;99536.69;5052902;28;20025;-78
2022/11/16 06:06:14;;;;;;;72.40;28.83;;;;;;;5.16;100.00;99531.78;5052359;28;20231;-78
2022/11/16 06:08:41;;;;;;;73.07;31.83;;;;;;;5.17;100.00;99534.16;5052028;28;20041;-79
2022/11/16 06:11:09;;;;;;;64.43;28.55;;;;;;;5.20;100.00;99538.09;5051925;28;20063;-82
2022/11/16 06:13:43;;;;;;;62.90;28.55;;;;;;;5.16;100.00;99529.75;5051573;28;20078;-78
2022/11/16 06:16:09;;;;;;;68.40;30.40;;;;;;;5.21;100.00;99525.50;5034723;28;20021;-80
2022/11/16 06:18:39;;;;;;;69.75;29.08;;;;;;;5.24;100.00;99521.72;5053001;28;20075;-78
2022/11/16 06:21:06;;;;;;;58.60;27.60;;;;;;;5.22;100.00;99527.06;5050771;28;20032;-78
2022/11/16 06:23:44;;;;;;;69.15;29.33;;;;;;;5.26;100.00;99519.19;5050510;28;20033;-77
2022/11/16 06:26:10;;;;;;;60.28;25.90;;;;;;;5.22;100.00;99510.88;5017329;28;20086;-77
2022/11/16 06:28:36;;;;;;;58.35;26.85;;;;;;;5.24;100.00;99516.06;5050504;28;20028;-77
2022/11/16 06:31:03;;;;;;;65.35;27.63;;;;;;;5.32;100.00;99520.13;5053772;28;20025;-77
2022/11/16 06:33:34;;;;;;;58.50;24.20;;;;;;;5.28;100.00;99508.97;5055671;28;20040;-77
2022/11/16 06:35:59;;;;;;;59.75;27.25;;;;;;;5.33;100.00;99513.19;5037603;28;20441;-76
2022/11/16 06:38:26;;;;;;;61.00;26.30;;;;;;;5.34;100.00;99514.78;5055850;28;20064;-77
2022/11/16 06:40:54;;;;;;;70.65;28.70;;;;;;;5.32;100.00;99506.75;5036439;28;20139;-77
2022/11/16 06:43:21;;;;;;;67.22;27.42;;;;;;;5.31;100.00;99498.72;5053084;28;20033;-79
2022/11/16 06:45:51;;;;;;;57.47;25.48;;;;;;;5.31;100.00;99491.00;5053988;28;20052;-78
2022/11/16 06:48:17;;;;;;;63.60;25.20;;;;;;;5.32;100.00;99494.63;5054369;28;20051;-78
2022/11/16 06:50:43;;;;;;;61.72;27.35;;;;;;;5.35;100.00;99497.28;5054084;28;20029;-78
2022/11/16 06:53:08;;;;;;;60.15;25.55;;;;;;;5.33;100.00;99501.88;5054190;28;20029;-77
2022/11/16 06:55:33;;;;;;;65.13;26.58;;;;;;;5.34;100.00;99504.25;5036094;28;20458;-78
2022/11/16 06:57:59;;;;;;;66.05;25.95;;;;;;;5.38;100.00;99510.50;5038028;28;20166;-77
2022/11/16 07:00:25;;;;;;;65.20;27.88;;;;;;;5.41;100.00;99505.13;5053629;28;20021;-79
2022/11/16 07:02:50;;;;;;;67.30;27.55;;;;;;;5.44;100.00;99513.50;5036155;28;20025;-76
2022/11/16 07:05:16;;;;;;;68.10;25.77;;;;;;;5.42;100.00;99499.00;5053841;28;20035;-78
2022/11/16 07:07:41;;;;;;;68.50;27.50;;;;;;;5.45;100.00;99500.88;5053749;28;20111;-78
2022/11/16 07:10:07;;;;;;;73.45;26.75;;;;;;;5.51;100.00;99521.63;5036001;28;20024;-78
2022/11/16 07:12:32;;;;;;;64.00;27.58;;;;;;;5.55;100.00;99519.41;5058650;28;20540;-78
2022/11/16 07:14:58;;;;;;;75.85;26.48;;;;;;;5.61;100.00;99520.34;5054303;28;20044;-77
2022/11/16 07:17:23;;;;;;;69.45;25.52;;;;;;;5.64;100.00;99519.41;5054538;28;20116;-78
2022/11/16 07:19:48;;;;;;;70.78;26.58;;;;;;;5.65;100.00;99520.16;5037962;28;20043;-79
2022/11/16 07:22:14;;;;;;;69.10;26.58;;;;;;;5.71;100.00;99513.38;5037910;28;20111;-78
2022/11/16 07:24:39;;;;;;;69.70;26.77;;;;;;;5.76;100.00;99523.28;5054517;28;20032;-79
2022/11/16 07:27:06;;;;;;;77.45;27.95;;;;;;;5.73;100.00;99524.25;5055379;28;20056;-78
2022/11/16 07:29:31;;;;;;;83.78;27.25;;;;;;;5.81;100.00;99536.78;5055916;28;20075;-78
2022/11/16 07:31:57;;;;;;;81.53;27.88;;;;;;;5.87;100.00;99526.38;5055500;28;20111;-78
2022/11/16 07:34:22;;;;;;;73.10;26.48;;;;;;;5.95;100.00;99521.13;5055508;28;20033;-78
2022/11/16 07:36:47;;;;;;;80.40;26.45;;;;;;;5.96;100.00;99506.47;5055089;28;20032;-78
2022/11/16 07:39:13;;;;;;;76.70;26.92;;;;;;;5.96;100.00;99500.03;5055247;28;20049;-78
2022/11/16 07:41:38;;;;;;;70.80;26.77;;;;;;;6.01;100.00;99496.53;5054490;28;20497;-77
2022/11/16 07:44:04;;;;;;;75.57;26.08;;;;;;;6.00;100.00;99501.41;5055309;28;20029;-76
2022/11/16 07:46:29;;;;;;;72.82;25.90;;;;;;;5.95;100.00;99515.47;5053389;28;20489;-76
2022/11/16 07:48:56;;;;;;;81.13;27.30;;;;;;;5.93;100.00;99501.78;5037066;28;20423;-76
2022/11/16 07:51:21;;;;;;;80.78;28.10;;;;;;;5.99;100.00;99513.25;5036312;28;20107;-77
2022/11/16 07:53:46;;;;;;;80.05;26.90;;;;;;;6.03;100.00;99511.03;5053419;28;20370;-77
2022/11/16 07:56:12;;;;;;;76.57;27.33;;;;;;;6.03;100.00;99517.47;5052940;28;20021;-76
2022/11/16 07:58:38;;;;;;;79.68;26.80;;;;;;;6.01;100.00;99510.72;5053207;28;20064;-77
2022/11/16 08:01:03;;;;;;;82.88;26.13;;;;;;;5.99;100.00;99513.25;5054624;28;20033;-76
2022/11/16 08:03:30;;;;;;;79.40;27.67;;;;;;;5.98;100.00;99512.47;5054353;28;20270;-77
2022/11/16 08:05:59;;;;;;;79.65;27.23;;;;;;;6.01;100.00;99502.19;5052487;28;20528;-78
2022/11/16 08:08:24;;;;;;;76.53;26.80;;;;;;;6.06;100.00;99507.22;5052272;28;20029;-77
2022/11/16 08:10:50;;;;;;;83.35;27.13;;;;;;;6.09;100.00;99514.78;5053224;28;20339;-76
2022/11/16 08:13:15;;;;;;;81.85;28.67;;;;;;;6.08;100.00;99508.31;5054698;28;20028;-78
2022/11/16 08:15:40;;;;;;;94.97;28.35;;;;;;;6.07;100.00;99514.47;5053628;28;20458;-77
2022/11/16 08:18:06;;;;;;;89.22;31.35;;;;;;;6.08;100.00;99513.19;5052468;28;20029;-79
2022/11/16 08:20:33;;;;;;;83.78;29.40;;;;;;;6.06;100.00;99510.84;5052931;28;20496;-78
2022/11/16 08:22:59;;;;;;;89.85;30.67;;;;;;;6.09;100.00;99506.25;5053123;28;20501;-78
2022/11/16 08:25:25;;;;;;;86.72;27.48;;;;;;;6.08;100.00;99507.53;5037097;28;20033;-78
2022/11/16 08:27:50;;;;;;;95.30;27.67;;;;;;;6.10;100.00;99516.31;5054480;28;20196;-78
2022/11/16 08:30:16;;;;;;;86.07;29.02;;;;;;;6.08;100.00;99518.88;5054541;28;20378;-78
2022/11/16 08:32:41;;;;;;;78.20;25.80;;;;;;;6.06;100.00;99510.03;5054271;28;20024;-76
2022/11/16 08:35:07;;;;;;;79.38;25.08;;;;;;;6.10;100.00;99519.94;5054091;28;20021;-77
2022/11/16 08:37:32;;;;;;;76.32;27.98;;;;;;;6.12;100.00;99523.09;5054052;28;20378;-77
2022/11/16 08:39:58;;;;;;;82.65;27.23;;;;;;;6.07;100.00;99520.91;5052940;28;20100;-78
2022/11/16 08:42:23;;;;;;;79.13;26.90;;;;;;;6.11;100.00;99523.56;5053874;28;20489;-79
2022/11/16 08:44:48;;;;;;;75.28;26.02;;;;;;;6.15;100.00;99527.00;5053752;28;20029;-76
2022/11/16 08:47:14;;;;;;;85.53;30.73;;;;;;;6.17;100.00;99530.16;5054144;28;20021;-77
2022/11/16 08:49:41;;;;;;;80.43;26.70;;;;;;;6.21;100.00;99520.19;5052788;28;20104;-77
2022/11/16 08:52:06;;;;;;;87.63;28.83;;;;;;;6.24;100.00;99522.06;5053427;28;20450;-77
2022/11/16 08:54:31;;;;;;;79.03;28.00;;;;;;;6.25;100.00;99534.97;5052807;28;20056;-77
2022/11/16 08:56:57;;;;;;;85.57;29.13;;;;;;;6.22;100.00;99521.78;5052970;28;20036;-78
2022/11/16 08:59:22;;;;;;;77.85;25.42;;;;;;;6.29;100.00;99534.03;5054102;28;20474;-77
2022/11/16 09:01:48;;;;;;;76.97;24.63;;;;;;;6.27;100.00;99534.50;5053785;28;20390;-77
2022/11/16 09:04:14;;;;;;;75.35;23.95;;;;;;;6.28;100.00;99529.63;5053882;28;20083;-78
2022/11/16 09:06:40;;;;;;;73.97;25.67;;;;;;;6.30;100.00;99532.78;5053680;28;20460;-78
2022/11/16 09:09:05;;;;;;;84.30;26.65;;;;;;;6.31;100.00;99532.31;5053614;28;20040;-78
2022/11/16 09:11:31;;;;;;;66.03;25.45;;;;;;;6.32;100.00;99531.03;5053880;28;20021;-78
2022/11/16 09:13:56;;;;;;;70.10;24.45;;;;;;;6.32;100.00;99548.06;5053618;28;20412;-77
2022/11/16 09:16:22;;;;;;;65.85;22.95;;;;;;;6.32;100.00;99542.41;5053758;28;20025;-77
2022/11/16 09:18:49;;;;;;;78.13;25.05;;;;;;;6.33;100.00;99552.47;5053611;28;20029;-77
2022/11/16 09:21:23;;;;;;;61.72;22.25;;;;;;;6.33;100.00;99554.53;5035553;28;20028;-77
2022/11/16 09:23:49;;;;;;;66.82;22.67;;;;;;;6.22;100.00;99547.31;5053290;28;20032;-77
2022/11/16 09:26:15;;;;;;;57.90;20.90;;;;;;;6.28;100.00;99549.47;5053368;28;20025;-78
2022/11/16 09:28:41;;;;;;;61.85;23.10;;;;;;;6.28;100.00;99540.97;5053316;28;20381;-77
2022/11/16 09:31:07;;;;;;;75.10;24.88;;;;;;;6.21;100.00;99547.78;5053319;28;20032;-78
2022/11/16 09:33:33;;;;;;;68.50;25.65;;;;;;;6.17;100.00;99539.47;5053380;28;20490;-76
2022/11/16 09:36:05;;;;;;;60.00;22.77;;;;;;;6.18;100.00;99543.09;5053113;28;20036;-78
2022/11/16 09:38:32;;;;;;;67.40;22.23;;;;;;;6.17;100.00;99539.47;5053024;28;20037;-76
2022/11/16 09:40:58;;;;;;;65.75;23.92;;;;;;;6.19;100.00;99541.78;5052887;28;20509;-76
2022/11/16 09:44:09;;;;;;;72.20;23.70;;;;;;;6.20;100.00;99546.19;5052985;28;20025;-77
2022/11/16 09:46:39;;;;;;;58.73;22.93;;;;;;;6.18;100.00;99540.25;5016716;28;20037;-76
2022/11/16 09:49:32;;;;;;;70.65;26.70;;;;;;;6.20;100.00;99524.31;5032158;28;20021;-76
2022/11/16 09:52:04;;;;;;;69.68;25.10;;;;;;;6.13;100.00;99524.69;5032794;28;20452;-80
2022/11/16 09:54:33;;;;;;;77.57;27.05;;;;;;;6.15;100.00;99521.34;5016252;28;20021;-79
2022/11/16 09:57:00;;;;;;;79.63;26.02;;;;;;;6.12;100.00;99531.59;5032310;28;20471;-80
2022/11/16 09:59:28;;;;;;;85.32;28.38;;;;;;;6.08;100.00;99522.50;5051097;28;20025;-80
2022/11/16 10:02:10;;;;;;;67.78;23.33;;;;;;;5.90;100.00;99488.56;5035898;28;20024;-80
2022/11/16 10:04:53;;;;;;;67.63;23.00;;;;;;;6.03;100.00;99534.50;5054781;28;20158;-81
2022/11/16 10:07:32;;;;;;;70.00;24.30;;;;;;;6.01;100.00;99525.69;5056658;28;20109;-80
2022/11/16 10:09:57;;;;;;;62.10;22.83;;;;;;;6.00;100.00;99520.47;5056578;28;20036;-80
2022/11/16 10:12:55;;;;;;;63.42;21.83;;;;;;;5.96;100.00;99511.38;5056366;28;20032;-79
2022/11/16 10:15:23;;;;;;;69.32;22.38;;;;;;;5.93;100.00;99504.63;5057257;28;20043;-81
2022/11/16 10:18:57;;;;;;;69.10;21.42;;;;;;;5.88;100.00;99504.47;5057164;28;20056;-80
2022/11/16 10:21:42;;;;;;;76.47;21.83;;;;;;;5.89;100.00;99494.72;5009392;28;20157;-79
2022/11/16 10:24:13;;;;;;;67.38;22.13;;;;;;;5.86;100.00;99487.94;5051776;28;20102;-80
2022/11/16 10:26:58;;;;;;;61.17;22.42;;;;;;;5.87;100.00;99491.56;5057245;28;20036;-81
2022/11/16 10:29:39;;;;;;;71.82;23.73;;;;;;;5.82;100.00;99481.66;5057083;28;20142;-79
2022/11/16 10:32:27;;;;;;;64.00;21.88;;;;;;;5.79;100.00;99483.41;5055142;28;20029;-79
2022/11/16 10:34:55;;;;;;;73.82;20.77;;;;;;;5.79;100.00;99491.91;5057348;28;20024;-80
2022/11/16 10:37:22;;;;;;;62.00;20.92;;;;;;;5.80;100.00;99484.97;5057373;28;20070;-83
2022/11/16 10:39:49;;;;;;;56.90;21.35;;;;;;;5.79;100.00;99472.06;5039191;28;20021;-82
2022/11/16 10:42:38;;;;;;;58.30;20.75;;;;;;;5.80;100.00;99470.81;5056904;28;20053;-82
2022/11/16 10:45:10;;;;;;;63.13;21.55;;;;;;;5.80;100.00;99476.47;5056471;28;20033;-83
2022/11/16 10:47:35;;;;;;;;;;;;;;;5.76;100.00;99478.72;5057874;28;20028;-84
2022/11/16 10:50:19;;;;;;;62.88;22.42;;;;;;;5.77;100.00;99488.78;5057178;28;19912;-84
2022/11/16 10:52:44;;;;;;;61.38;22.30;;;;;;;5.79;100.00;99482.66;5056281;28;20033;-83
2022/11/16 10:55:14;;;;;;;64.63;22.83;;;;;;;5.81;100.00;99474.44;5056539;28;20017;-83
2022/11/16 11:01:09;;;;;;;57.28;22.58;;;;;;;5.78;100.00;99469.72;5071115;27;20481;-82
2022/11/16 11:03:35;;;;;;;43.65;19.73;;;;;;;5.77;100.00;99477.44;5069841;28;20512;-84
2022/11/16 11:06:00;;;;;;;54.38;20.55;;;;;;;5.79;100.00;99474.91;5071062;28;20107;-85
2022/11/16 11:08:30;;;;;;;55.25;21.02;;;;;;;5.77;100.00;99471.78;5071270;28;20028;-86
2022/11/16 11:12:36;;;;;;;66.88;24.08;;;;;;;5.82;100.00;99461.84;5070778;28;20029;-85
2022/11/16 11:14:02;;;;;;;67.28;22.98;;;;;;;5.82;100.00;99462.63;5069730;28;20385;-83
2022/11/16 11:16:27;;;;;;;59.55;21.92;;;;;;;5.90;100.00;99471.53;5070937;28;20074;-83
2022/11/16 11:18:52;;;;;;;55.33;20.90;;;;;;;5.94;100.00;99463.66;5070712;28;20025;-81
2022/11/16 11:21:19;;;;;;;50.33;22.92;;;;;;;5.98;100.00;99458.59;5070576;28;20112;-80
2022/11/16 11:23:51;;;;;;;52.28;21.40;;;;;;;6.00;100.00;99458.88;5069580;28;20020;-80
2022/11/16 11:26:34;;;;;;;57.40;21.27;;;;;;;5.97;100.00;99457.00;5052501;28;20032;-79
2022/11/16 11:29:00;;;;;;;62.50;23.00;;;;;;;5.96;100.00;99460.31;5070707;28;20420;-79
2022/11/16 11:31:32;;;;;;;48.05;20.30;;;;;;;5.97;100.00;99457.00;5052451;28;20017;-79
2022/11/16 11:34:18;;;;;;;;;;;;;;;5.96;100.00;99466.00;5069356;28;20031;-80
2022/11/16 11:36:55;;;;;;;54.78;20.80;;;;;;;5.94;100.00;99462.88;5070105;28;19963;-80
2022/11/16 11:39:20;;;;;;;80.25;30.30;;;;;;;5.95;100.00;99453.88;5070254;28;20016;-80
2022/11/16 12:03:26;;;;;;;46.67;19.00;;;;;;;4.59;100.00;99451.53;5132231;27;20406;-79
2022/11/16 12:05:55;;;;;;;46.72;20.33;;;;;;;4.67;100.00;99438.63;5132074;27;20043;-80
2022/11/16 12:08:20;;;;;;;51.38;20.45;;;;;;;4.78;100.00;99428.41;5132411;27;20020;-79
2022/11/16 12:10:53;;;;;;;52.72;21.35;;;;;;;4.95;100.00;99440.16;5132443;28;20031;-79
2022/11/16 12:13:31;;;;;;;54.72;20.65;;;;;;;5.09;100.00;99436.66;5114103;28;20043;-80
2022/11/16 12:16:05;;;;;;;53.70;22.95;;;;;;;5.21;100.00;99443.38;5113622;28;20377;-79
2022/11/16 12:18:55;;;;;;;49.65;20.98;;;;;;;5.29;100.00;99439.75;5131526;28;20046;-79
2022/11/16 12:21:42;;;;;;;47.40;18.67;;;;;;;5.38;100.00;99436.06;5131566;27;20027;-79
2022/11/16 12:24:27;;;;;;;50.08;20.17;;;;;;;5.45;100.00;99430.03;5131834;28;20132;-79
2022/11/16 12:27:14;;;;;;;46.58;19.27;;;;;;;5.44;100.00;99420.00;5099421;28;20023;-78